sensor_id;sensor_type;location;lat;lon;timestamp;P1;durP1;ratioP1;P2;durP2;ratioP2
48767;SDS011;34933;40.968;14.538;2023-07-20T00:02:31;20.00;;;7.85;;
48767;SDS011;34933;40.968;14.538;2023-07-20T00:05:16;19.73;;;8.23;;
48767;SDS011;34933;40.968;14.538;2023-07-20T00:08:04;19.33;;;7.85;;
48767;SDS011;34933;40.968;14.538;2023-07-20T00:10:49;11.10;;;7.60;;
48767;SDS011;34933;40.968;14.538;2023-07-20T00:13:34;18.35;;;8.00;;
48767;SDS011;34933;40.968;14.538;2023-07-20T00:16:19;11.60;;;7.78;;
48767;SDS011;34933;40.968;14.538;2023-07-20T00:19:03;16.58;;;7.43;;
48767;SDS011;34933;40.968;14.538;2023-07-20T00:21:50;13.55;;;6.90;;
48767;SDS011;34933;40.968;14.538;2023-07-20T00:24:35;16.92;;;7.38;;
48767;SDS011;34933;40.968;14.538;2023-07-20T00:27:19;18.48;;;7.60;;
48767;SDS011;34933;40.968;14.538;2023-07-20T00:30:04;15.27;;;7.80;;
48767;SDS011;34933;40.968;14.538;2023-07-20T00:32:49;15.82;;;7.57;;
48767;SDS011;34933;40.968;14.538;2023-07-20T00:35:34;19.77;;;7.47;;
48767;SDS011;34933;40.968;14.538;2023-07-20T00:38:18;12.27;;;6.60;;
48767;SDS011;34933;40.968;14.538;2023-07-20T00:41:03;17.98;;;7.35;;
48767;SDS011;34933;40.968;14.538;2023-07-20T00:43:47;12.38;;;7.20;;
48767;SDS011;34933;40.968;14.538;2023-07-20T00:46:32;14.50;;;6.65;;
48767;SDS011;34933;40.968;14.538;2023-07-20T00:49:18;19.42;;;7.43;;
48767;SDS011;34933;40.968;14.538;2023-07-20T00:52:06;16.75;;;7.40;;
48767;SDS011;34933;40.968;14.538;2023-07-20T00:54:50;16.50;;;6.90;;
48767;SDS011;34933;40.968;14.538;2023-07-20T00:57:36;13.07;;;6.47;;
48767;SDS011;34933;40.968;14.538;2023-07-20T01:00:21;17.10;;;6.75;;
48767;SDS011;34933;40.968;14.538;2023-07-20T01:03:06;10.45;;;5.85;;
48767;SDS011;34933;40.968;14.538;2023-07-20T01:06:03;12.95;;;6.13;;
48767;SDS011;34933;40.968;14.538;2023-07-20T01:09:14;11.07;;;6.22;;
48767;SDS011;34933;40.968;14.538;2023-07-20T01:12:13;15.45;;;7.03;;
48767;SDS011;34933;40.968;14.538;2023-07-20T01:15:24;15.55;;;6.20;;
48767;SDS011;34933;40.968;14.538;2023-07-20T01:18:09;13.18;;;6.10;;
48767;SDS011;34933;40.968;14.538;2023-07-20T01:20:59;13.25;;;5.93;;
48767;SDS011;34933;40.968;14.538;2023-07-20T01:33:13;15.60;;;6.07;;
48767;SDS011;34933;40.968;14.538;2023-07-20T01:35:59;18.35;;;7.35;;
48767;SDS011;34933;40.968;14.538;2023-07-20T01:38:46;18.10;;;6.57;;
48767;SDS011;34933;40.968;14.538;2023-07-20T01:41:31;20.52;;;6.50;;
48767;SDS011;34933;40.968;14.538;2023-07-20T01:44:15;15.02;;;6.15;;
48767;SDS011;34933;40.968;14.538;2023-07-20T01:47:00;24.77;;;7.00;;
48767;SDS011;34933;40.968;14.538;2023-07-20T01:49:45;12.25;;;5.85;;
48767;SDS011;34933;40.968;14.538;2023-07-20T01:52:29;14.18;;;6.22;;
48767;SDS011;34933;40.968;14.538;2023-07-20T01:55:14;19.55;;;6.93;;
48767;SDS011;34933;40.968;14.538;2023-07-20T01:57:59;20.52;;;6.80;;
48767;SDS011;34933;40.968;14.538;2023-07-20T02:00:45;16.85;;;6.57;;
48767;SDS011;34933;40.968;14.538;2023-07-20T02:03:30;17.08;;;6.07;;
48767;SDS011;34933;40.968;14.538;2023-07-20T02:06:15;15.73;;;6.00;;
48767;SDS011;34933;40.968;14.538;2023-07-20T02:08:59;11.43;;;5.95;;
48767;SDS011;34933;40.968;14.538;2023-07-20T02:11:44;15.40;;;6.30;;
48767;SDS011;34933;40.968;14.538;2023-07-20T02:14:29;18.35;;;7.45;;
48767;SDS011;34933;40.968;14.538;2023-07-20T02:17:13;15.60;;;6.20;;
48767;SDS011;34933;40.968;14.538;2023-07-20T02:19:58;15.85;;;6.30;;
48767;SDS011;34933;40.968;14.538;2023-07-20T02:22:43;17.95;;;6.22;;
48767;SDS011;34933;40.968;14.538;2023-07-20T02:25:28;15.63;;;5.80;;
48767;SDS011;34933;40.968;14.538;2023-07-20T02:28:15;21.85;;;6.72;;
48767;SDS011;34933;40.968;14.538;2023-07-20T02:31:00;14.95;;;7.03;;
48767;SDS011;34933;40.968;14.538;2023-07-20T02:33:44;10.93;;;5.43;;
48767;SDS011;34933;40.968;14.538;2023-07-20T02:36:29;13.82;;;6.07;;
48767;SDS011;34933;40.968;14.538;2023-07-20T02:39:13;15.52;;;5.80;;
48767;SDS011;34933;40.968;14.538;2023-07-20T02:41:58;14.95;;;6.18;;
48767;SDS011;34933;40.968;14.538;2023-07-20T02:44:43;18.10;;;6.18;;
48767;SDS011;34933;40.968;14.538;2023-07-20T02:47:28;14.77;;;6.00;;
48767;SDS011;34933;40.968;14.538;2023-07-20T02:50:13;21.42;;;6.43;;
48767;SDS011;34933;40.968;14.538;2023-07-20T02:52:58;15.20;;;6.55;;
48767;SDS011;34933;40.968;14.538;2023-07-20T02:55:42;16.70;;;6.43;;
48767;SDS011;34933;40.968;14.538;2023-07-20T02:58:27;12.30;;;6.28;;
48767;SDS011;34933;40.968;14.538;2023-07-20T03:01:11;14.27;;;5.90;;
48767;SDS011;34933;40.968;14.538;2023-07-20T03:03:57;13.20;;;5.97;;
48767;SDS011;34933;40.968;14.538;2023-07-20T03:06:41;20.05;;;6.32;;
48767;SDS011;34933;40.968;14.538;2023-07-20T03:09:26;14.65;;;6.25;;
48767;SDS011;34933;40.968;14.538;2023-07-20T03:12:11;14.23;;;5.85;;
48767;SDS011;34933;40.968;14.538;2023-07-20T03:14:55;17.70;;;6.25;;
48767;SDS011;34933;40.968;14.538;2023-07-20T03:17:40;13.15;;;6.72;;
48767;SDS011;34933;40.968;14.538;2023-07-20T03:20:26;11.07;;;5.82;;
48767;SDS011;34933;40.968;14.538;2023-07-20T03:23:10;20.17;;;7.25;;
48767;SDS011;34933;40.968;14.538;2023-07-20T03:25:55;23.67;;;6.07;;
48767;SDS011;34933;40.968;14.538;2023-07-20T03:28:40;12.63;;;6.03;;
48767;SDS011;34933;40.968;14.538;2023-07-20T03:31:27;15.40;;;6.45;;
48767;SDS011;34933;40.968;14.538;2023-07-20T03:34:12;17.55;;;7.80;;
48767;SDS011;34933;40.968;14.538;2023-07-20T03:36:56;11.13;;;6.18;;
48767;SDS011;34933;40.968;14.538;2023-07-20T03:39:41;17.27;;;6.53;;
48767;SDS011;34933;40.968;14.538;2023-07-20T03:42:26;17.88;;;5.55;;
48767;SDS011;34933;40.968;14.538;2023-07-20T03:45:10;20.63;;;6.35;;
48767;SDS011;34933;40.968;14.538;2023-07-20T03:47:55;12.73;;;5.25;;
48767;SDS011;34933;40.968;14.538;2023-07-20T03:50:41;13.80;;;6.28;;
48767;SDS011;34933;40.968;14.538;2023-07-20T03:53:25;16.33;;;7.18;;
48767;SDS011;34933;40.968;14.538;2023-07-20T03:56:10;18.63;;;7.50;;
48767;SDS011;34933;40.968;14.538;2023-07-20T03:58:55;17.13;;;6.82;;
48767;SDS011;34933;40.968;14.538;2023-07-20T04:01:40;14.77;;;6.30;;
48767;SDS011;34933;40.968;14.538;2023-07-20T04:04:24;18.17;;;6.40;;
48767;SDS011;34933;40.968;14.538;2023-07-20T04:07:09;17.90;;;6.63;;
48767;SDS011;34933;40.968;14.538;2023-07-20T04:09:54;15.77;;;6.03;;
48767;SDS011;34933;40.968;14.538;2023-07-20T04:12:39;20.08;;;6.93;;
48767;SDS011;34933;40.968;14.538;2023-07-20T04:15:23;13.77;;;7.10;;
48767;SDS011;34933;40.968;14.538;2023-07-20T04:18:08;16.38;;;6.70;;
48767;SDS011;34933;40.968;14.538;2023-07-20T04:20:52;17.92;;;7.18;;
48767;SDS011;34933;40.968;14.538;2023-07-20T04:23:37;19.50;;;7.63;;
48767;SDS011;34933;40.968;14.538;2023-07-20T04:26:22;15.35;;;6.63;;
48767;SDS011;34933;40.968;14.538;2023-07-20T04:29:07;18.70;;;6.93;;
48767;SDS011;34933;40.968;14.538;2023-07-20T04:31:54;20.90;;;7.68;;
48767;SDS011;34933;40.968;14.538;2023-07-20T04:34:38;28.42;;;9.32;;
48767;SDS011;34933;40.968;14.538;2023-07-20T04:37:23;21.83;;;8.25;;
48767;SDS011;34933;40.968;14.538;2023-07-20T04:40:08;21.73;;;8.70;;
48767;SDS011;34933;40.968;14.538;2023-07-20T04:42:53;24.48;;;10.60;;
48767;SDS011;34933;40.968;14.538;2023-07-20T04:45:38;29.45;;;12.00;;
48767;SDS011;34933;40.968;14.538;2023-07-20T04:48:23;34.03;;;14.10;;
48767;SDS011;34933;40.968;14.538;2023-07-20T04:51:10;41.53;;;14.05;;
48767;SDS011;34933;40.968;14.538;2023-07-20T04:53:55;30.63;;;13.63;;
48767;SDS011;34933;40.968;14.538;2023-07-20T04:56:41;33.72;;;12.88;;
48767;SDS011;34933;40.968;14.538;2023-07-20T04:59:27;24.85;;;10.88;;
48767;SDS011;34933;40.968;14.538;2023-07-20T05:02:12;30.00;;;11.75;;
48767;SDS011;34933;40.968;14.538;2023-07-20T05:04:57;35.63;;;11.55;;
48767;SDS011;34933;40.968;14.538;2023-07-20T05:07:42;28.85;;;10.88;;
48767;SDS011;34933;40.968;14.538;2023-07-20T05:10:26;32.47;;;11.30;;
48767;SDS011;34933;40.968;14.538;2023-07-20T05:13:11;41.55;;;12.10;;
48767;SDS011;34933;40.968;14.538;2023-07-20T05:15:56;26.65;;;11.95;;
48767;SDS011;34933;40.968;14.538;2023-07-20T05:18:40;36.33;;;11.20;;
48767;SDS011;34933;40.968;14.538;2023-07-20T05:21:26;30.00;;;12.45;;
48767;SDS011;34933;40.968;14.538;2023-07-20T05:24:10;31.40;;;11.18;;
48767;SDS011;34933;40.968;14.538;2023-07-20T05:26:55;38.28;;;12.20;;
48767;SDS011;34933;40.968;14.538;2023-07-20T05:29:43;34.58;;;11.82;;
48767;SDS011;34933;40.968;14.538;2023-07-20T05:32:28;47.47;;;14.35;;
48767;SDS011;34933;40.968;14.538;2023-07-20T05:35:13;50.50;;;16.60;;
48767;SDS011;34933;40.968;14.538;2023-07-20T05:37:59;51.30;;;17.70;;
48767;SDS011;34933;40.968;14.538;2023-07-20T05:40:44;38.42;;;17.63;;
48767;SDS011;34933;40.968;14.538;2023-07-20T05:43:29;44.65;;;19.23;;
48767;SDS011;34933;40.968;14.538;2023-07-20T05:46:14;56.17;;;24.73;;
48767;SDS011;34933;40.968;14.538;2023-07-20T05:48:59;62.55;;;24.50;;
48767;SDS011;34933;40.968;14.538;2023-07-20T05:51:44;54.50;;;22.25;;
48767;SDS011;34933;40.968;14.538;2023-07-20T05:54:29;57.50;;;24.17;;
48767;SDS011;34933;40.968;14.538;2023-07-20T05:57:13;58.20;;;25.27;;
48767;SDS011;34933;40.968;14.538;2023-07-20T05:59:58;62.70;;;27.02;;
48767;SDS011;34933;40.968;14.538;2023-07-20T06:02:43;81.82;;;38.97;;
48767;SDS011;34933;40.968;14.538;2023-07-20T06:05:29;88.35;;;42.63;;
48767;SDS011;34933;40.968;14.538;2023-07-20T06:08:14;107.47;;;46.33;;
48767;SDS011;34933;40.968;14.538;2023-07-20T06:10:59;117.97;;;56.90;;
48767;SDS011;34933;40.968;14.538;2023-07-20T06:13:43;112.88;;;61.50;;
48767;SDS011;34933;40.968;14.538;2023-07-20T06:16:28;122.60;;;62.38;;
48767;SDS011;34933;40.968;14.538;2023-07-20T06:19:12;101.13;;;48.10;;
48767;SDS011;34933;40.968;14.538;2023-07-20T06:21:57;75.57;;;36.40;;
48767;SDS011;34933;40.968;14.538;2023-07-20T06:24:41;67.03;;;30.15;;
48767;SDS011;34933;40.968;14.538;2023-07-20T06:27:26;66.25;;;28.20;;
48767;SDS011;34933;40.968;14.538;2023-07-20T06:30:11;66.75;;;29.58;;
48767;SDS011;34933;40.968;14.538;2023-07-20T06:32:55;53.78;;;22.05;;
48767;SDS011;34933;40.968;14.538;2023-07-20T06:35:43;56.10;;;20.90;;
48767;SDS011;34933;40.968;14.538;2023-07-20T06:38:27;46.78;;;20.48;;
48767;SDS011;34933;40.968;14.538;2023-07-20T06:41:13;41.53;;;18.85;;
48767;SDS011;34933;40.968;14.538;2023-07-20T06:43:57;48.58;;;18.02;;
48767;SDS011;34933;40.968;14.538;2023-07-20T06:46:42;31.63;;;15.82;;
48767;SDS011;34933;40.968;14.538;2023-07-20T06:49:27;45.30;;;16.38;;
48767;SDS011;34933;40.968;14.538;2023-07-20T06:52:12;43.75;;;13.65;;
48767;SDS011;34933;40.968;14.538;2023-07-20T06:54:56;34.78;;;12.05;;
48767;SDS011;34933;40.968;14.538;2023-07-20T06:57:41;32.03;;;13.23;;
48767;SDS011;34933;40.968;14.538;2023-07-20T07:00:26;50.80;;;13.55;;
48767;SDS011;34933;40.968;14.538;2023-07-20T07:03:10;34.97;;;12.57;;
48767;SDS011;34933;40.968;14.538;2023-07-20T07:05:55;32.97;;;11.68;;
48767;SDS011;34933;40.968;14.538;2023-07-20T07:08:40;32.65;;;11.45;;
48767;SDS011;34933;40.968;14.538;2023-07-20T07:11:25;30.90;;;10.20;;
48767;SDS011;34933;40.968;14.538;2023-07-20T07:14:09;25.65;;;9.88;;
48767;SDS011;34933;40.968;14.538;2023-07-20T07:16:54;26.88;;;9.85;;
48767;SDS011;34933;40.968;14.538;2023-07-20T07:19:38;36.38;;;12.23;;
48767;SDS011;34933;40.968;14.538;2023-07-20T07:22:24;38.58;;;16.00;;
48767;SDS011;34933;40.968;14.538;2023-07-20T07:25:09;36.00;;;14.32;;
48767;SDS011;34933;40.968;14.538;2023-07-20T07:27:54;31.02;;;13.88;;
48767;SDS011;34933;40.968;14.538;2023-07-20T07:30:39;22.63;;;11.63;;
48767;SDS011;34933;40.968;14.538;2023-07-20T07:33:24;62.22;;;13.32;;
48767;SDS011;34933;40.968;14.538;2023-07-20T07:36:09;31.17;;;10.02;;
48767;SDS011;34933;40.968;14.538;2023-07-20T07:38:54;29.42;;;9.43;;
48767;SDS011;34933;40.968;14.538;2023-07-20T07:41:38;17.98;;;7.53;;
48767;SDS011;34933;40.968;14.538;2023-07-20T07:44:23;18.38;;;7.28;;
48767;SDS011;34933;40.968;14.538;2023-07-20T07:47:08;17.38;;;7.53;;
48767;SDS011;34933;40.968;14.538;2023-07-20T07:49:53;21.33;;;8.70;;
48767;SDS011;34933;40.968;14.538;2023-07-20T07:52:38;23.02;;;8.57;;
48767;SDS011;34933;40.968;14.538;2023-07-20T07:55:22;17.55;;;7.68;;
48767;SDS011;34933;40.968;14.538;2023-07-20T07:58:07;23.23;;;8.00;;
48767;SDS011;34933;40.968;14.538;2023-07-20T08:00:52;25.25;;;7.30;;
48767;SDS011;34933;40.968;14.538;2023-07-20T08:03:37;17.63;;;7.60;;
48767;SDS011;34933;40.968;14.538;2023-07-20T08:06:22;21.80;;;7.72;;
48767;SDS011;34933;40.968;14.538;2023-07-20T08:09:07;22.55;;;8.43;;
48767;SDS011;34933;40.968;14.538;2023-07-20T08:11:52;24.45;;;7.60;;
48767;SDS011;34933;40.968;14.538;2023-07-20T08:14:36;24.20;;;8.60;;
48767;SDS011;34933;40.968;14.538;2023-07-20T08:17:21;29.42;;;8.63;;
48767;SDS011;34933;40.968;14.538;2023-07-20T08:20:06;37.72;;;8.43;;
48767;SDS011;34933;40.968;14.538;2023-07-20T08:22:56;32.10;;;9.13;;
48767;SDS011;34933;40.968;14.538;2023-07-20T08:25:41;28.13;;;8.85;;
48767;SDS011;34933;40.968;14.538;2023-07-20T08:28:28;28.65;;;8.90;;
48767;SDS011;34933;40.968;14.538;2023-07-20T08:31:13;23.77;;;8.48;;
48767;SDS011;34933;40.968;14.538;2023-07-20T08:33:59;25.25;;;7.38;;
48767;SDS011;34933;40.968;14.538;2023-07-20T08:36:43;19.05;;;6.40;;
48767;SDS011;34933;40.968;14.538;2023-07-20T08:39:28;25.98;;;9.38;;
48767;SDS011;34933;40.968;14.538;2023-07-20T08:42:12;21.55;;;8.82;;
48767;SDS011;34933;40.968;14.538;2023-07-20T08:44:59;23.63;;;8.85;;
48767;SDS011;34933;40.968;14.538;2023-07-20T08:47:44;21.60;;;8.48;;
48767;SDS011;34933;40.968;14.538;2023-07-20T08:50:31;22.88;;;8.43;;
48767;SDS011;34933;40.968;14.538;2023-07-20T08:53:16;26.63;;;9.27;;
48767;SDS011;34933;40.968;14.538;2023-07-20T08:56:01;20.48;;;9.00;;
48767;SDS011;34933;40.968;14.538;2023-07-20T08:58:48;26.25;;;8.75;;
48767;SDS011;34933;40.968;14.538;2023-07-20T09:01:32;17.45;;;8.40;;
48767;SDS011;34933;40.968;14.538;2023-07-20T09:04:18;23.85;;;9.00;;
48767;SDS011;34933;40.968;14.538;2023-07-20T09:07:03;28.90;;;10.00;;
48767;SDS011;34933;40.968;14.538;2023-07-20T09:09:47;36.55;;;13.07;;
48767;SDS011;34933;40.968;14.538;2023-07-20T09:12:38;34.40;;;10.93;;
48767;SDS011;34933;40.968;14.538;2023-07-20T09:15:28;25.25;;;9.95;;
48767;SDS011;34933;40.968;14.538;2023-07-20T09:18:12;37.10;;;10.40;;
48767;SDS011;34933;40.968;14.538;2023-07-20T09:21:08;54.00;;;10.77;;
48767;SDS011;34933;40.968;14.538;2023-07-20T09:23:52;33.83;;;10.32;;
48767;SDS011;34933;40.968;14.538;2023-07-20T09:26:41;24.92;;;9.82;;
48767;SDS011;34933;40.968;14.538;2023-07-20T09:29:29;31.55;;;10.50;;
48767;SDS011;34933;40.968;14.538;2023-07-20T09:32:14;24.92;;;9.52;;
48767;SDS011;34933;40.968;14.538;2023-07-20T09:35:04;22.08;;;8.82;;
48767;SDS011;34933;40.968;14.538;2023-07-20T09:37:50;36.72;;;10.68;;
48767;SDS011;34933;40.968;14.538;2023-07-20T09:40:41;27.92;;;10.27;;
48767;SDS011;34933;40.968;14.538;2023-07-20T09:43:28;26.67;;;9.63;;
48767;SDS011;34933;40.968;14.538;2023-07-20T09:46:14;26.60;;;9.63;;
48767;SDS011;34933;40.968;14.538;2023-07-20T09:49:01;35.22;;;10.38;;
48767;SDS011;34933;40.968;14.538;2023-07-20T09:51:46;30.45;;;9.60;;
48767;SDS011;34933;40.968;14.538;2023-07-20T09:54:31;23.42;;;9.02;;
48767;SDS011;34933;40.968;14.538;2023-07-20T09:57:16;25.02;;;11.10;;
48767;SDS011;34933;40.968;14.538;2023-07-20T10:00:01;27.85;;;10.55;;
48767;SDS011;34933;40.968;14.538;2023-07-20T10:02:58;26.65;;;8.68;;
48767;SDS011;34933;40.968;14.538;2023-07-20T10:05:47;18.63;;;9.10;;
48767;SDS011;34933;40.968;14.538;2023-07-20T10:08:38;23.25;;;8.82;;
48767;SDS011;34933;40.968;14.538;2023-07-20T10:11:24;30.83;;;10.00;;
48767;SDS011;34933;40.968;14.538;2023-07-20T10:14:13;25.27;;;8.90;;
48767;SDS011;34933;40.968;14.538;2023-07-20T10:17:02;19.67;;;9.18;;
48767;SDS011;34933;40.968;14.538;2023-07-20T10:19:49;23.45;;;9.20;;
48767;SDS011;34933;40.968;14.538;2023-07-20T10:22:38;27.88;;;11.35;;
48767;SDS011;34933;40.968;14.538;2023-07-20T10:25:23;23.48;;;10.15;;
48767;SDS011;34933;40.968;14.538;2023-07-20T10:28:08;33.15;;;10.10;;
48767;SDS011;34933;40.968;14.538;2023-07-20T10:30:55;24.42;;;9.30;;
48767;SDS011;34933;40.968;14.538;2023-07-20T10:33:39;27.05;;;9.23;;
48767;SDS011;34933;40.968;14.538;2023-07-20T10:36:25;22.00;;;8.93;;
48767;SDS011;34933;40.968;14.538;2023-07-20T10:39:21;23.02;;;9.00;;
48767;SDS011;34933;40.968;14.538;2023-07-20T10:42:11;27.33;;;10.48;;
48767;SDS011;34933;40.968;14.538;2023-07-20T10:44:56;25.00;;;8.80;;
48767;SDS011;34933;40.968;14.538;2023-07-20T10:47:47;17.55;;;9.40;;
48767;SDS011;34933;40.968;14.538;2023-07-20T10:50:32;29.35;;;9.85;;
48767;SDS011;34933;40.968;14.538;2023-07-20T10:53:18;22.92;;;9.27;;
48767;SDS011;34933;40.968;14.538;2023-07-20T10:56:07;25.25;;;9.35;;
48767;SDS011;34933;40.968;14.538;2023-07-20T10:58:58;24.40;;;9.55;;
48767;SDS011;34933;40.968;14.538;2023-07-20T11:01:43;27.40;;;9.00;;
48767;SDS011;34933;40.968;14.538;2023-07-20T11:04:38;32.63;;;10.60;;
48767;SDS011;34933;40.968;14.538;2023-07-20T11:07:37;21.90;;;8.13;;
48767;SDS011;34933;40.968;14.538;2023-07-20T11:10:22;23.17;;;8.95;;
48767;SDS011;34933;40.968;14.538;2023-07-20T11:16:43;17.42;;;8.52;;
48767;SDS011;34933;40.968;14.538;2023-07-20T11:19:29;24.35;;;8.52;;
48767;SDS011;34933;40.968;14.538;2023-07-20T11:22:16;23.63;;;9.63;;
48767;SDS011;34933;40.968;14.538;2023-07-20T11:25:01;21.45;;;9.35;;
48767;SDS011;34933;40.968;14.538;2023-07-20T11:27:47;25.65;;;8.27;;
48767;SDS011;34933;40.968;14.538;2023-07-20T11:30:33;29.50;;;8.38;;
48767;SDS011;34933;40.968;14.538;2023-07-20T11:33:18;19.60;;;7.50;;
48767;SDS011;34933;40.968;14.538;2023-07-20T11:36:02;22.15;;;7.55;;
48767;SDS011;34933;40.968;14.538;2023-07-20T11:38:47;17.75;;;6.15;;
48767;SDS011;34933;40.968;14.538;2023-07-20T11:41:31;23.38;;;7.68;;
48767;SDS011;34933;40.968;14.538;2023-07-20T11:44:19;20.95;;;7.05;;
48767;SDS011;34933;40.968;14.538;2023-07-20T11:47:11;20.00;;;7.38;;
48767;SDS011;34933;40.968;14.538;2023-07-20T11:49:56;17.35;;;7.45;;
48767;SDS011;34933;40.968;14.538;2023-07-20T11:52:47;19.90;;;7.75;;
48767;SDS011;34933;40.968;14.538;2023-07-20T11:55:32;20.67;;;6.97;;
48767;SDS011;34933;40.968;14.538;2023-07-20T11:58:17;17.30;;;7.05;;
48767;SDS011;34933;40.968;14.538;2023-07-20T12:01:02;18.77;;;6.53;;
48767;SDS011;34933;40.968;14.538;2023-07-20T12:03:48;17.52;;;7.53;;
48767;SDS011;34933;40.968;14.538;2023-07-20T12:06:32;20.90;;;8.50;;
48767;SDS011;34933;40.968;14.538;2023-07-20T12:09:17;17.55;;;7.72;;
48767;SDS011;34933;40.968;14.538;2023-07-20T12:12:08;23.48;;;7.88;;
48767;SDS011;34933;40.968;14.538;2023-07-20T12:14:55;16.55;;;7.72;;
48767;SDS011;34933;40.968;14.538;2023-07-20T12:17:58;23.23;;;7.82;;
48767;SDS011;34933;40.968;14.538;2023-07-20T12:20:44;28.15;;;7.97;;
48767;SDS011;34933;40.968;14.538;2023-07-20T12:23:34;16.40;;;7.35;;
48767;SDS011;34933;40.968;14.538;2023-07-20T12:26:20;19.30;;;8.00;;
48767;SDS011;34933;40.968;14.538;2023-07-20T12:29:07;20.90;;;7.85;;
48767;SDS011;34933;40.968;14.538;2023-07-20T12:31:52;16.52;;;6.95;;
48767;SDS011;34933;40.968;14.538;2023-07-20T12:34:37;24.52;;;8.15;;
48767;SDS011;34933;40.968;14.538;2023-07-20T12:37:22;27.15;;;8.10;;
48767;SDS011;34933;40.968;14.538;2023-07-20T12:40:07;20.63;;;8.35;;
48767;SDS011;34933;40.968;14.538;2023-07-20T12:42:54;20.55;;;7.75;;
48767;SDS011;34933;40.968;14.538;2023-07-20T12:45:39;20.60;;;7.97;;
48767;SDS011;34933;40.968;14.538;2023-07-20T12:48:25;15.02;;;7.30;;
48767;SDS011;34933;40.968;14.538;2023-07-20T12:51:09;26.75;;;7.40;;
48767;SDS011;34933;40.968;14.538;2023-07-20T12:53:55;20.88;;;8.15;;
48767;SDS011;34933;40.968;14.538;2023-07-20T12:56:41;26.25;;;7.93;;
48767;SDS011;34933;40.968;14.538;2023-07-20T12:59:25;21.10;;;7.68;;
48767;SDS011;34933;40.968;14.538;2023-07-20T13:02:10;17.35;;;7.50;;
48767;SDS011;34933;40.968;14.538;2023-07-20T13:04:55;22.30;;;7.40;;
48767;SDS011;34933;40.968;14.538;2023-07-20T13:07:39;24.90;;;7.90;;
48767;SDS011;34933;40.968;14.538;2023-07-20T13:10:24;22.67;;;8.02;;
48767;SDS011;34933;40.968;14.538;2023-07-20T13:13:09;16.23;;;7.05;;
48767;SDS011;34933;40.968;14.538;2023-07-20T13:15:54;21.38;;;7.38;;
48767;SDS011;34933;40.968;14.538;2023-07-20T13:18:39;23.42;;;7.88;;
48767;SDS011;34933;40.968;14.538;2023-07-20T13:21:24;20.88;;;6.65;;
48767;SDS011;34933;40.968;14.538;2023-07-20T13:24:08;17.80;;;6.97;;
48767;SDS011;34933;40.968;14.538;2023-07-20T13:26:53;22.23;;;7.55;;
48767;SDS011;34933;40.968;14.538;2023-07-20T13:29:38;22.95;;;7.85;;
48767;SDS011;34933;40.968;14.538;2023-07-20T13:32:22;19.88;;;7.22;;
48767;SDS011;34933;40.968;14.538;2023-07-20T13:35:07;16.10;;;8.07;;
48767;SDS011;34933;40.968;14.538;2023-07-20T13:37:51;25.73;;;7.65;;
48767;SDS011;34933;40.968;14.538;2023-07-20T13:40:36;19.52;;;6.45;;
48767;SDS011;34933;40.968;14.538;2023-07-20T13:43:20;15.50;;;7.47;;
48767;SDS011;34933;40.968;14.538;2023-07-20T13:46:05;17.23;;;7.07;;
48767;SDS011;34933;40.968;14.538;2023-07-20T13:48:49;14.30;;;7.10;;
48767;SDS011;34933;40.968;14.538;2023-07-20T13:51:34;15.30;;;7.05;;
48767;SDS011;34933;40.968;14.538;2023-07-20T13:54:18;21.15;;;7.15;;
48767;SDS011;34933;40.968;14.538;2023-07-20T13:57:03;17.08;;;7.22;;
48767;SDS011;34933;40.968;14.538;2023-07-20T13:59:48;28.63;;;7.57;;
48767;SDS011;34933;40.968;14.538;2023-07-20T14:02:33;21.50;;;6.65;;
48767;SDS011;34933;40.968;14.538;2023-07-20T14:05:17;20.45;;;7.85;;
48767;SDS011;34933;40.968;14.538;2023-07-20T14:08:03;17.67;;;6.80;;
48767;SDS011;34933;40.968;14.538;2023-07-20T14:10:48;19.02;;;6.95;;
48767;SDS011;34933;40.968;14.538;2023-07-20T14:13:32;20.13;;;7.38;;
48767;SDS011;34933;40.968;14.538;2023-07-20T14:16:17;17.27;;;7.43;;
48767;SDS011;34933;40.968;14.538;2023-07-20T14:19:02;16.90;;;7.10;;
48767;SDS011;34933;40.968;14.538;2023-07-20T14:21:48;17.40;;;7.18;;
48767;SDS011;34933;40.968;14.538;2023-07-20T14:24:33;19.88;;;7.20;;
48767;SDS011;34933;40.968;14.538;2023-07-20T14:27:18;19.05;;;6.70;;
48767;SDS011;34933;40.968;14.538;2023-07-20T14:30:02;22.33;;;6.50;;
48767;SDS011;34933;40.968;14.538;2023-07-20T14:32:47;18.25;;;6.30;;
48767;SDS011;34933;40.968;14.538;2023-07-20T14:35:33;26.15;;;6.93;;
48767;SDS011;34933;40.968;14.538;2023-07-20T14:38:17;21.85;;;5.85;;
48767;SDS011;34933;40.968;14.538;2023-07-20T14:41:02;16.92;;;6.50;;
48767;SDS011;34933;40.968;14.538;2023-07-20T14:43:47;13.85;;;6.82;;
48767;SDS011;34933;40.968;14.538;2023-07-20T14:46:32;25.35;;;6.65;;
48767;SDS011;34933;40.968;14.538;2023-07-20T14:49:16;24.77;;;6.15;;
48767;SDS011;34933;40.968;14.538;2023-07-20T14:52:02;14.30;;;5.45;;
48767;SDS011;34933;40.968;14.538;2023-07-20T14:54:47;12.05;;;5.93;;
48767;SDS011;34933;40.968;14.538;2023-07-20T14:57:32;17.48;;;5.28;;
48767;SDS011;34933;40.968;14.538;2023-07-20T15:00:16;17.25;;;5.18;;
48767;SDS011;34933;40.968;14.538;2023-07-20T15:03:01;21.88;;;5.70;;
48767;SDS011;34933;40.968;14.538;2023-07-20T15:05:46;13.45;;;5.60;;
48767;SDS011;34933;40.968;14.538;2023-07-20T15:08:30;17.15;;;6.68;;
48767;SDS011;34933;40.968;14.538;2023-07-20T15:11:15;15.70;;;6.13;;
48767;SDS011;34933;40.968;14.538;2023-07-20T15:13:59;20.35;;;6.22;;
48767;SDS011;34933;40.968;14.538;2023-07-20T15:16:45;18.95;;;6.90;;
48767;SDS011;34933;40.968;14.538;2023-07-20T15:19:29;15.85;;;6.68;;
48767;SDS011;34933;40.968;14.538;2023-07-20T15:22:14;17.50;;;6.15;;
48767;SDS011;34933;40.968;14.538;2023-07-20T15:24:59;14.10;;;5.80;;
48767;SDS011;34933;40.968;14.538;2023-07-20T15:27:44;18.45;;;5.50;;
48767;SDS011;34933;40.968;14.538;2023-07-20T15:30:28;17.15;;;6.50;;
48767;SDS011;34933;40.968;14.538;2023-07-20T15:33:13;13.93;;;5.72;;
48767;SDS011;34933;40.968;14.538;2023-07-20T15:35:58;31.88;;;6.78;;
48767;SDS011;34933;40.968;14.538;2023-07-20T15:38:42;18.60;;;6.95;;
48767;SDS011;34933;40.968;14.538;2023-07-20T15:41:27;15.52;;;5.93;;
48767;SDS011;34933;40.968;14.538;2023-07-20T15:44:12;17.30;;;5.78;;
48767;SDS011;34933;40.968;14.538;2023-07-20T15:46:57;22.67;;;7.00;;
48767;SDS011;34933;40.968;14.538;2023-07-20T15:49:42;15.15;;;5.47;;
48767;SDS011;34933;40.968;14.538;2023-07-20T15:52:27;21.35;;;6.03;;
48767;SDS011;34933;40.968;14.538;2023-07-20T15:55:12;13.95;;;5.85;;
48767;SDS011;34933;40.968;14.538;2023-07-20T15:57:56;23.88;;;6.85;;
48767;SDS011;34933;40.968;14.538;2023-07-20T16:00:41;16.55;;;5.47;;
48767;SDS011;34933;40.968;14.538;2023-07-20T16:03:26;29.83;;;5.75;;
48767;SDS011;34933;40.968;14.538;2023-07-20T16:06:10;23.95;;;6.00;;
48767;SDS011;34933;40.968;14.538;2023-07-20T16:08:55;15.68;;;5.57;;
48767;SDS011;34933;40.968;14.538;2023-07-20T16:11:39;21.58;;;5.05;;
48767;SDS011;34933;40.968;14.538;2023-07-20T16:14:24;20.17;;;5.95;;
48767;SDS011;34933;40.968;14.538;2023-07-20T16:17:08;17.83;;;5.25;;
48767;SDS011;34933;40.968;14.538;2023-07-20T16:19:53;13.93;;;5.57;;